Strait of Georgia - north of Nanaimo: Past 24 Hour Conditions

 

Victoria Int'l Airport

07:00 PM PDT 01 September 2014
This table is a summary of hourly weather conditions for the past 24 hours.
Date / Time
(PDT)
Wind(knots) Conditions Visibility(km) Pressure(kPa) Air tempC) Relative humidity(%) Dew pointC)
01 September 2014
19:00 N 1 Mostly Cloudy 48 101.6 18 70 13
18:00 ESE 5 Mostly Cloudy 48 101.6 19 66 12
17:00 SE 6 Mostly Cloudy 48 101.7 19 64 12
16:00 SE 7 Mostly Cloudy 48 101.7 18 65 12
15:00 SE 9 Mostly Cloudy 48 101.7 18 70 12
14:00 SE 12 Mostly Cloudy 48 101.7 19 67 13
13:00 SE 13 gust 19 Mostly Cloudy 48 101.7 18 71 13
12:00 SE 15 gust 20 Mainly Sunny 48 101.8 17 72 12
11:00 SE 12 gust 19 Mainly Sunny 48 101.8 16 73 12
10:00 ESE 9 Mainly Sunny 48 101.8 16 77 12
9:00 ESE 5 Partly Cloudy 48 101.8 15 80 12
8:00 SE 2 Partly Cloudy 48 101.8 14 85 11
7:00 SSE 3 Partly Cloudy 48 101.8 10 94 9
6:00 calm Mainly Clear 48 101.7 11 93 10
5:00 calm Mainly Clear 48 101.7 11 91 9
4:00 W 2 Mainly Clear 48 101.8 11 86 9
3:00 E 3 Partly Cloudy 48 101.7 12 85 10
2:00 WSW 2 Mostly Cloudy 48 101.7 13 83 10
1:00 N 1 Mostly Cloudy 48 101.7 15 73 11
0:00 SSE 3 Mostly Cloudy 48 101.7 15 79 11
31 August 2014
23:00 WSW 4 Mostly Cloudy 48 101.7 14 86 12
22:00 SSE 6 Mostly Cloudy 48 101.7 14 87 12
21:00 N 1 Mostly Cloudy 48 101.7 14 86 12
20:00 N 1 Partly Cloudy 48 101.7 15 82 12
19:00 S 2 Mostly Cloudy 48 101.6 16 78 13
 
Map of Pacific - Georgia Basin marine weather areas Tsawwassen Ferry Terminal Sentry Shoal - 46131 Halibut Bank - 46146 La Perouse Bank - 46206 Discovery Island Esquimalt Harbour Kelp Reefs Malahat Race Rocks Lightstation Saturna Island Sheringham Point University of Victoria Victoria Gonzales Victoria Int'l Airport Ballenas Islands Campbell River Airport Comox Airport Entrance Island Fanny Island Nanaimo Airport Sisters Islets Estevan Point Tofino Airport Grief Point Powell River Airport Sechelt Point Atkinson Sand Heads Lightstation Vancouver Harbour Vancouver Int'l Airport West Vancouver Port Alberni Howe Sound - Pam Rocks Squamish Airport